createdAt,value
2022-10-20T00:01:52.907Z,-11027.81
2022-10-20T00:04:59.225Z,-11025.72
2022-10-20T00:08:05.708Z,-11043.09
2022-10-20T00:11:12.964Z,-11030.75
2022-10-20T00:14:20.387Z,-11026.13
2022-10-20T00:17:26.424Z,-11049.28
2022-10-20T00:20:32.613Z,-11052.34
2022-10-20T00:23:38.781Z,-11051.66
2022-10-20T00:26:44.911Z,-11049.28
2022-10-20T00:29:52.700Z,-11051.50
2022-10-20T00:32:58.907Z,-11034.41
2022-10-20T00:36:08.052Z,-11036.38
2022-10-20T00:39:14.170Z,-11018.97
2022-10-20T00:42:21.174Z,-11027.66
2022-10-20T00:45:28.987Z,-11032.28
2022-10-20T00:48:36.359Z,-11045.63
2022-10-20T00:51:44.101Z,-11041.84
2022-10-20T00:54:51.110Z,-11035.38
2022-10-20T00:58:00.109Z,-11026.53
2022-10-20T01:01:08.270Z,-11003.41
2022-10-20T01:04:14.508Z,-11017.84
2022-10-20T01:07:20.763Z,-11023.03
2022-10-20T01:10:32.902Z,-11021.34
2022-10-20T01:13:47.132Z,-11034.41
2022-10-20T01:17:04.574Z,-11038.59
2022-10-20T01:20:52.499Z,-11034.25
2022-10-20T01:24:37.200Z,-11031.72
2022-10-20T01:27:46.730Z,-11032.44
2022-10-20T01:31:00.338Z,-11013.66
2022-10-20T01:34:12.907Z,-11018.97
2022-10-20T01:37:47.617Z,-11034.53
2022-10-20T01:41:00.406Z,-11030.75
2022-10-20T01:44:12.239Z,-10999.63
2022-10-20T01:47:19.759Z,-10985.59
2022-10-20T01:50:26.958Z,-10988.13
2022-10-20T01:53:33.062Z,-10989.53
2022-10-20T01:56:47.983Z,-11008.75
2022-10-20T02:00:05.830Z,-11027.09
2022-10-20T02:03:33.364Z,-11032.72
2022-10-20T02:06:45.683Z,-11005.78
2022-10-20T02:09:57.435Z,-11003.25
2022-10-20T02:13:07.113Z,-11008.03
2022-10-20T02:16:20.663Z,-11025.28
2022-10-20T02:19:30.472Z,-11030.47
2022-10-20T02:22:37.654Z,-11033.97
2022-10-20T02:25:44.386Z,-11027.37
2022-10-20T02:28:54.591Z,-11036.38
2022-10-20T02:32:02.458Z,-10997.81
2022-10-20T02:35:12.231Z,-10997.25
2022-10-20T02:38:18.431Z,-10995.56
2022-10-20T02:41:24.771Z,-10999.63
2022-10-20T02:44:30.983Z,-11026.69
2022-10-20T02:47:39.120Z,-11023.75
2022-10-20T02:50:45.670Z,-11018.97
2022-10-20T02:53:51.995Z,-11028.22
2022-10-20T02:56:58.193Z,-11028.78
2022-10-20T03:00:05.630Z,-11025.28
2022-10-20T03:03:13.386Z,-11022.91
2022-10-20T03:06:19.447Z,-11001.59
2022-10-20T03:09:25.743Z,-11001.59
2022-10-20T03:12:32.377Z,-11011.69
2022-10-20T03:15:39.111Z,-11005.78
2022-10-20T03:18:46.867Z,-11011.41
2022-10-20T03:21:53.304Z,-11015.03
2022-10-20T03:24:59.311Z,-11027.94
2022-10-20T03:28:05.936Z,-11019.66
2022-10-20T03:31:12.100Z,-11001.72
2022-10-20T03:34:19.668Z,-10991.22
2022-10-20T03:37:25.683Z,-10987.97
2022-10-20T03:40:31.599Z,-10993.44
2022-10-20T03:43:37.587Z,-11000.31
2022-10-20T03:46:44.004Z,-11007.19
2022-10-20T03:49:51.675Z,-10985.88
2022-10-20T03:52:57.949Z,-10988.13
2022-10-20T03:56:07.386Z,-11007.91
2022-10-20T03:59:13.416Z,-11008.03
2022-10-20T04:02:33.461Z,-11014.19
2022-10-20T04:05:41.681Z,-11018.13
2022-10-20T04:08:47.821Z,-11012.53
2022-10-20T04:11:53.876Z,-10989.81
2022-10-20T04:15:00.613Z,-10985.59
2022-10-20T04:18:06.871Z,-10982.94
2022-10-20T04:21:14.495Z,-10992.63
2022-10-20T04:24:22.572Z,-11007.19
2022-10-20T04:27:29.956Z,-10986.44
2022-10-20T04:30:40.439Z,-10993.59
2022-10-20T04:33:49.673Z,-10984.75
2022-10-20T04:36:57.508Z,-10995.69
2022-10-20T04:40:04.874Z,-10996.97
2022-10-20T04:43:10.859Z,-10996.81
2022-10-20T04:46:17.081Z,-11010.00
2022-10-20T04:49:23.565Z,-11008.88
2022-10-20T04:52:31.530Z,-11001.31
2022-10-20T04:55:37.888Z,-11008.19
2022-10-20T04:58:44.391Z,-11007.19
2022-10-20T05:01:50.709Z,-11009.84
2022-10-20T05:04:56.695Z,-11014.34
2022-10-20T05:08:04.303Z,-11021.22
2022-10-20T05:11:11.194Z,-11015.03
2022-10-20T05:14:17.351Z,-11014.47
2022-10-20T05:17:23.594Z,-11007.06
2022-10-20T05:20:36.731Z,-11018.56
2022-10-20T05:23:58.994Z,-10997.53
2022-10-20T05:27:05.131Z,-10992.91
2022-10-20T05:30:12.402Z,-11009.00
2022-10-20T05:33:18.597Z,-11021.63
2022-10-20T05:36:26.839Z,-11017.44
2022-10-20T05:39:34.428Z,-11021.34
2022-10-20T05:42:40.378Z,-11030.63
2022-10-20T05:45:46.448Z,-11031.59
2022-10-20T05:48:54.584Z,-11044.38
2022-10-20T05:52:00.910Z,-11026.81
2022-10-20T05:55:10.343Z,-11049.13
2022-10-20T05:58:19.540Z,-11057.69
2022-10-20T06:01:39.510Z,-11075.53
2022-10-20T06:04:45.813Z,-11088.56
2022-10-20T06:07:54.115Z,-11079.03
2022-10-20T06:11:06.164Z,-11087.72
2022-10-20T06:14:12.170Z,-11098.69
2022-10-20T06:17:18.436Z,-11104.72
2022-10-20T06:20:25.007Z,-11111.03
2022-10-20T06:23:31.183Z,-11114.84
2022-10-20T06:26:40.471Z,-11121.44
2022-10-20T06:29:46.883Z,-11127.34
2022-10-20T06:32:55.605Z,-11130.00
2022-10-20T06:36:02.179Z,-11130.84
2022-10-20T06:39:10.164Z,-11144.47
2022-10-20T06:42:17.691Z,-11143.06
2022-10-20T06:45:23.746Z,-11159.50
2022-10-20T06:48:29.803Z,-11168.09
2022-10-20T06:51:36.549Z,-11161.91
2022-10-20T06:54:42.530Z,-11175.94
2022-10-20T06:57:50.386Z,-11177.63
2022-10-20T07:01:01.962Z,-11194.50
2022-10-20T07:04:14.960Z,-11203.38
2022-10-20T07:07:21.124Z,-11193.38
2022-10-20T07:10:27.519Z,-11199.00
2022-10-20T07:13:36.414Z,-11212.50
2022-10-20T07:16:43.178Z,-11210.25
2022-10-20T07:19:49.074Z,-11227.13
2022-10-20T07:22:55.149Z,-11238.09
2022-10-20T07:26:02.670Z,-11246.56
2022-10-20T07:29:11.384Z,-11228.41
2022-10-20T07:32:17.498Z,-11237.41
2022-10-20T07:35:23.496Z,-11252.59
2022-10-20T07:38:29.626Z,-11257.25
2022-10-20T07:41:39.685Z,-11269.50
2022-10-20T07:44:47.302Z,-11274.97
2022-10-20T07:47:53.245Z,-11284.41
2022-10-20T07:51:15.676Z,-11281.03
2022-10-20T07:54:21.789Z,-11298.63
2022-10-20T07:57:27.987Z,-11296.66
2022-10-20T08:00:35.732Z,-11299.91
2022-10-20T08:03:42.123Z,-11306.50
2022-10-20T08:06:48.492Z,-11303.41
2022-10-20T08:09:54.881Z,-11321.84
2022-10-20T08:13:01.155Z,-11324.25
2022-10-20T08:16:10.368Z,-11314.69
2022-10-20T08:22:37.382Z,-11328.19
2022-10-20T08:25:43.664Z,-11335.22
2022-10-20T08:28:50.612Z,-11328.19
2022-10-20T08:31:57.918Z,-11343.13
2022-10-20T08:35:03.863Z,-11334.53
2022-10-20T08:38:09.926Z,-11346.22
2022-10-20T08:41:20.515Z,-11357.50
2022-10-20T08:44:29.245Z,-11349.31
2022-10-20T08:47:39.656Z,-11358.63
2022-10-20T08:50:49.489Z,-11361.44
2022-10-20T08:53:59.056Z,-11359.59
2022-10-20T08:57:16.329Z,-11366.78
2022-10-20T09:00:24.880Z,-11367.50
2022-10-20T09:03:34.890Z,-11362.56
2022-10-20T09:06:45.055Z,-11375.81
2022-10-20T09:09:51.574Z,-11378.19
2022-10-20T09:12:58.515Z,-11377.34
2022-10-20T09:16:08.141Z,-11372.16
2022-10-20T09:19:19.860Z,-11380.59
2022-10-20T09:22:34.767Z,-11377.91
2022-10-20T09:25:44.558Z,-11391.59
2022-10-20T09:29:12.099Z,-11403.16
2022-10-20T09:35:51.960Z,-11404.13
2022-10-20T09:38:59.029Z,-11394.13
2022-10-20T09:42:08.420Z,-11390.47
2022-10-20T09:45:22.203Z,-11401.44
2022-10-20T09:48:33.009Z,-11413.84
2022-10-20T09:51:49.150Z,-11400.31
2022-10-20T09:55:01.919Z,-11413.56
2022-10-20T09:58:17.198Z,-11431.47
2022-10-20T10:01:24.365Z,-11419.22
2022-10-20T10:04:34.923Z,-11429.09
2022-10-20T10:07:42.479Z,-11431.34
2022-10-20T10:11:00.785Z,-11426.81
2022-10-20T10:14:07.371Z,-11433.03
2022-10-20T10:17:13.959Z,-11434.28
2022-10-20T10:20:33.380Z,-11431.91
2022-10-20T10:23:52.544Z,-11433.72
2022-10-20T10:26:58.663Z,-11432.19
2022-10-20T10:30:28.995Z,-11418.50
2022-10-20T10:33:35.003Z,-11431.47
2022-10-20T10:36:41.315Z,-11431.19
2022-10-20T10:39:48.788Z,-11432.03
2022-10-20T10:43:07.907Z,-11437.25
2022-10-20T10:46:18.570Z,-11429.94
2022-10-20T10:49:53.799Z,-11441.75
2022-10-20T10:53:14.699Z,-11434.16
2022-10-20T10:56:29.814Z,-11453.63
2022-10-20T10:59:41.685Z,-11451.63
2022-10-20T11:03:01.590Z,-11441.75
2022-10-20T11:06:17.762Z,-11442.63
2022-10-20T11:09:33.023Z,-11441.63
2022-10-20T11:13:03.632Z,-11447.97
2022-10-20T11:16:22.708Z,-11443.31
2022-10-20T11:19:44.908Z,-11459.53
2022-10-20T11:23:07.997Z,-11456.72
2022-10-20T11:26:26.782Z,-11475.34
2022-10-20T11:29:43.206Z,-11455.03
2022-10-20T11:32:54.945Z,-11455.88
2022-10-20T11:36:05.868Z,-11449.66
2022-10-20T11:39:19.371Z,-11443.03
2022-10-20T11:42:32.345Z,-11455.31
2022-10-20T11:45:46.596Z,-11446.56
2022-10-20T11:48:54.631Z,-11444.72
2022-10-20T11:52:18.776Z,-11462.63
2022-10-20T11:55:37.271Z,-11454.75
2022-10-20T11:59:09.775Z,-11462.91
2022-10-20T12:02:46.289Z,-11479.84
2022-10-20T12:06:24.533Z,-11449.66
2022-10-20T12:09:54.131Z,-11457.13
2022-10-20T12:13:08.730Z,-11444.44
2022-10-20T12:16:54.062Z,-11451.63
2022-10-20T12:20:42.236Z,-11453.34
2022-10-20T12:24:05.795Z,-11448.38
2022-10-20T12:27:21.749Z,-11457.84
2022-10-20T12:30:45.502Z,-11457.84
2022-10-20T12:34:03.904Z,-11464.59
2022-10-20T12:37:18.133Z,-11438.66
2022-10-20T12:40:32.799Z,-11447.97
2022-10-20T12:43:52.347Z,-11452.19
2022-10-20T12:47:04.717Z,-11455.44
2022-10-20T12:50:33.524Z,-11448.53
2022-10-20T12:53:41.156Z,-11459.25
2022-10-20T12:56:48.873Z,-11462.06
2022-10-20T12:59:55.055Z,-11460.38
2022-10-20T13:03:01.179Z,-11460.25
2022-10-20T13:06:40.097Z,-11452.47
2022-10-20T13:10:00.284Z,-11468.13
2022-10-20T13:13:43.660Z,-11466.00
2022-10-20T13:16:53.205Z,-11469.69
2022-10-20T13:20:04.047Z,-11459.25
2022-10-20T13:23:14.092Z,-11467.44
2022-10-20T13:26:24.751Z,-11480.41
2022-10-20T13:29:38.047Z,-11482.38
2022-10-20T13:33:11.077Z,-11471.53
2022-10-20T13:36:30.682Z,-11481.09
2022-10-20T13:39:46.172Z,-11469.13
2022-10-20T13:43:09.247Z,-11462.06
2022-10-20T13:46:32.785Z,-11480.13
2022-10-20T13:49:54.933Z,-11458.69
2022-10-20T13:53:04.464Z,-11451.63
2022-10-20T13:56:22.689Z,-11436.69
2022-10-20T13:59:30.750Z,-11434.16
2022-10-20T14:02:38.675Z,-11433.44
2022-10-20T14:05:45.108Z,-11439.66
2022-10-20T14:12:05.034Z,-11442.63
2022-10-20T14:15:14.975Z,-11446.41
2022-10-20T14:18:26.060Z,-11442.91
2022-10-20T14:21:40.910Z,-11444.16
2022-10-20T14:24:49.628Z,-11420.47
2022-10-20T14:27:57.172Z,-11405.97
2022-10-20T14:31:04.341Z,-11398.06
2022-10-20T14:34:22.412Z,-11391.16
2022-10-20T14:37:33.029Z,-11386.66
2022-10-20T14:40:39.592Z,-11382.00
2022-10-20T14:43:48.687Z,-11379.47
2022-10-20T14:46:57.906Z,-11375.53
2022-10-20T14:50:07.474Z,-11372.16
2022-10-20T14:53:31.339Z,-11367.34
2022-10-20T14:56:45.223Z,-11361.72
2022-10-20T14:59:53.864Z,-11356.50
2022-10-20T15:03:03.202Z,-11355.66
2022-10-20T15:06:15.239Z,-11352.97
2022-10-20T15:09:31.062Z,-11346.50
2022-10-20T15:12:43.019Z,-11342.97
2022-10-20T15:15:49.758Z,-11339.75
2022-10-20T15:19:14.378Z,-11342.00
2022-10-20T15:22:21.891Z,-11337.22
2022-10-20T15:25:29.752Z,-11335.09
2022-10-20T15:28:38.977Z,-11333.13
2022-10-20T15:31:45.380Z,-11331.28
2022-10-20T15:34:51.731Z,-11323.41
2022-10-20T15:37:59.301Z,-11327.91
2022-10-20T15:41:05.560Z,-11324.81
2022-10-20T15:44:16.993Z,-11322.13
2022-10-20T15:47:23.535Z,-11321.84
2022-10-20T15:50:29.939Z,-11315.25
2022-10-20T15:53:37.317Z,-11302.16
2022-10-20T15:56:43.436Z,-11295.81
2022-10-20T15:59:49.576Z,-11296.94
2022-10-20T16:02:56.298Z,-11286.38
2022-10-20T16:06:02.144Z,-11284.00
2022-10-20T16:09:11.945Z,-11285.25
2022-10-20T16:12:20.978Z,-11293.69
2022-10-20T16:15:30.275Z,-11288.78
2022-10-20T16:18:37.490Z,-11279.63
2022-10-20T16:21:43.810Z,-11266.81
2022-10-20T16:24:51.395Z,-11258.66
2022-10-20T16:27:57.769Z,-11253.03
2022-10-20T16:31:06.454Z,-11241.75
2022-10-20T16:34:12.676Z,-11241.75
2022-10-20T16:37:19.285Z,-11239.50
2022-10-20T16:40:26.679Z,-11230.94
2022-10-20T16:43:32.983Z,-11237.28
2022-10-20T16:46:39.331Z,-11237.41
2022-10-20T16:49:45.484Z,-11237.28
2022-10-20T16:52:51.787Z,-11229.81
2022-10-20T16:55:59.589Z,-11223.19
2022-10-20T16:59:05.768Z,-11220.94
2022-10-20T17:02:13.429Z,-11218.41
2022-10-20T17:05:26.397Z,-11220.09
2022-10-20T17:08:32.934Z,-11213.06
2022-10-20T17:11:40.371Z,-11210.25
2022-10-20T17:14:46.298Z,-11207.59
2022-10-20T17:17:52.687Z,-11204.34
2022-10-20T17:20:58.967Z,-11202.94
2022-10-20T17:24:05.822Z,-11196.19
2022-10-20T17:27:13.386Z,-11203.78
2022-10-20T17:30:19.408Z,-11203.22
2022-10-20T17:33:27.151Z,-11194.78
2022-10-20T17:36:33.952Z,-11192.53
2022-10-20T17:39:39.979Z,-11187.19
2022-10-20T17:42:47.727Z,-11179.31
2022-10-20T17:45:57.862Z,-11182.97
2022-10-20T17:49:03.958Z,-11181.00
2022-10-20T17:52:10.324Z,-11176.50
2022-10-20T17:55:16.876Z,-11175.66
2022-10-20T17:58:24.511Z,-11180.16
2022-10-20T18:01:32.847Z,-11180.03
2022-10-20T18:04:38.955Z,-11172.88
2022-10-20T18:07:46.093Z,-11168.66
2022-10-20T18:10:52.551Z,-11168.94
2022-10-20T18:14:01.408Z,-11166.97
2022-10-20T18:17:07.722Z,-11160.22
2022-10-20T18:20:14.267Z,-11163.88
2022-10-20T18:23:20.504Z,-11165.28
2022-10-20T18:26:27.079Z,-11167.25
2022-10-20T18:29:34.840Z,-11161.34
2022-10-20T18:32:40.869Z,-11160.63
2022-10-20T18:35:46.700Z,-11161.63
2022-10-20T18:38:53.644Z,-11157.97
2022-10-20T18:41:59.798Z,-11159.09
2022-10-20T18:45:08.303Z,-11159.66
2022-10-20T18:48:14.653Z,-11165.84
2022-10-20T18:51:21.165Z,-11126.63
2022-10-20T18:54:28.321Z,-11124.53
2022-10-20T18:57:39.372Z,-11135.47
2022-10-20T19:00:47.104Z,-11125.66
2022-10-20T19:03:55.580Z,-11123.81
2022-10-20T19:07:01.900Z,-11127.06
2022-10-20T19:10:08.799Z,-11134.06
2022-10-20T19:13:14.956Z,-11136.88
2022-10-20T19:16:25.106Z,-11140.53
2022-10-20T19:19:31.179Z,-11148.53
2022-10-20T19:22:39.598Z,-11159.09
2022-10-20T19:25:45.856Z,-11162.03
2022-10-20T19:28:58.613Z,-11159.78
2022-10-20T19:32:07.693Z,-11129.31
2022-10-20T19:35:16.474Z,-11129.44
2022-10-20T19:38:22.701Z,-11128.88
2022-10-20T19:41:29.376Z,-11129.31
2022-10-20T19:44:36.400Z,-11112.72
2022-10-20T19:47:44.075Z,-11114.56
2022-10-20T19:50:50.311Z,-11113.16
2022-10-20T19:53:56.307Z,-11114.00
2022-10-20T19:57:02.496Z,-11102.62
2022-10-20T20:00:09.615Z,-11107.97
2022-10-20T20:03:17.633Z,-11102.34
2022-10-20T20:06:24.854Z,-11102.06
2022-10-20T20:09:31.753Z,-11103.47
2022-10-20T20:12:39.815Z,-11110.06
2022-10-20T20:15:46.087Z,-11105.56
2022-10-20T20:18:53.788Z,-11108.09
2022-10-20T20:22:00.008Z,-11105.84
2022-10-20T20:25:06.968Z,-11102.34
2022-10-20T20:28:13.723Z,-11089.69
2022-10-20T20:31:20.240Z,-11111.19
2022-10-20T20:34:27.960Z,-11104.88
2022-10-20T20:37:35.873Z,-11111.03
2022-10-20T20:40:46.623Z,-11097.28
2022-10-20T20:43:52.591Z,-11082.25
2022-10-20T20:46:58.744Z,-11076.78
2022-10-20T20:50:07.748Z,-11092.22
2022-10-20T20:53:13.861Z,-11082.41
2022-10-20T20:56:21.920Z,-11070.03
2022-10-20T20:59:30.551Z,-11068.06
2022-10-20T21:02:36.735Z,-11080.44
2022-10-20T21:05:44.629Z,-11070.88
2022-10-20T21:08:53.627Z,-11073.12
2022-10-20T21:11:59.668Z,-11062.19
2022-10-20T21:15:06.309Z,-11061.34
2022-10-20T21:18:12.447Z,-11066.53
2022-10-20T21:21:22.020Z,-11068.06
2022-10-20T21:24:28.607Z,-11062.31
2022-10-20T21:27:34.955Z,-11066.66
2022-10-20T21:30:41.469Z,-11063.72
2022-10-20T21:33:51.285Z,-11068.34
2022-10-20T21:36:58.810Z,-11085.63
2022-10-20T21:40:05.512Z,-11084.91
2022-10-20T21:43:14.172Z,-11078.19
2022-10-20T21:46:22.355Z,-11061.63
2022-10-20T21:49:28.432Z,-11074.81
2022-10-20T21:52:39.161Z,-11073.00
2022-10-20T21:55:45.376Z,-11069.19
2022-10-20T21:58:51.450Z,-11071.31
2022-10-20T22:01:59.459Z,-11074.81
2022-10-20T22:05:05.989Z,-11082.25
2022-10-20T22:08:13.747Z,-11071.72
2022-10-20T22:11:22.613Z,-11069.47
2022-10-20T22:14:30.669Z,-11068.63
2022-10-20T22:17:37.003Z,-11041.41
2022-10-20T22:20:43.075Z,-11042.13
2022-10-20T22:23:56.099Z,-11051.38
2022-10-20T22:27:02.161Z,-11064.84
2022-10-20T22:30:09.662Z,-11059.66
2022-10-20T22:33:15.654Z,-11040.84
2022-10-20T22:36:22.378Z,-11038.59
2022-10-20T22:39:29.630Z,-11038.75
2022-10-20T22:42:35.554Z,-11041.97
2022-10-20T22:45:41.697Z,-11047.44
2022-10-20T22:48:48.230Z,-11047.88
2022-10-20T22:51:54.404Z,-11049.41
2022-10-20T22:55:02.211Z,-11047.88
2022-10-20T22:58:08.517Z,-11033.28
2022-10-20T23:01:18.156Z,-11029.63
2022-10-20T23:04:24.199Z,-11022.62
2022-10-20T23:07:30.681Z,-11011.41
2022-10-20T23:10:38.368Z,-11014.75
2022-10-20T23:13:44.811Z,-11020.94
2022-10-20T23:16:51.029Z,-11010.13
2022-10-20T23:19:57.383Z,-11012.38
2022-10-20T23:23:03.830Z,-11010.84
2022-10-20T23:26:12.898Z,-11007.19
2022-10-20T23:29:18.999Z,-11016.31
2022-10-20T23:32:25.429Z,-11006.91
2022-10-20T23:35:31.677Z,-10996.81
2022-10-20T23:38:37.904Z,-11000.59
2022-10-20T23:41:45.335Z,-11004.94
2022-10-20T23:44:51.321Z,-11006.06
2022-10-20T23:47:57.587Z,-11010.84
2022-10-20T23:51:04.142Z,-11016.72
2022-10-20T23:54:10.510Z,-11022.91
2022-10-20T23:57:18.410Z,-11031.72
